createdAt,value
2017-05-19T00:00:25.417Z,0
2017-05-19T00:01:05.823Z,0
2017-05-19T00:01:46.238Z,0
2017-05-19T00:02:28.953Z,0
2017-05-19T00:03:09.233Z,0
2017-05-19T00:03:49.626Z,0
2017-05-19T00:04:30.437Z,0
2017-05-19T00:05:10.756Z,0
2017-05-19T00:05:51.184Z,0
2017-05-19T00:06:31.672Z,0
2017-05-19T00:07:12.167Z,0
2017-05-19T00:07:52.578Z,0
2017-05-19T00:08:33.121Z,0
2017-05-19T00:09:14.780Z,0
2017-05-19T00:09:55.979Z,0
2017-05-19T00:10:42.758Z,0
2017-05-19T00:11:23.042Z,0
2017-05-19T00:12:03.432Z,0
2017-05-19T00:12:43.914Z,0
2017-05-19T00:13:24.547Z,0
2017-05-19T00:14:04.958Z,0
2017-05-19T00:14:45.433Z,0
2017-05-19T00:15:25.886Z,0
2017-05-19T00:16:06.321Z,0
2017-05-19T00:16:46.797Z,0
2017-05-19T00:17:27.225Z,0
2017-05-19T00:18:07.742Z,0
2017-05-19T00:18:48.894Z,0
2017-05-19T00:19:29.300Z,0
2017-05-19T00:20:09.634Z,0
2017-05-19T00:20:50.205Z,0
2017-05-19T00:21:30.789Z,0
2017-05-19T00:22:12.446Z,0
2017-05-19T00:22:53.634Z,0
2017-05-19T00:23:34.265Z,0
2017-05-19T00:24:14.682Z,0
2017-05-19T00:24:55.267Z,0
2017-05-19T00:25:36.683Z,0
2017-05-19T00:26:18.492Z,0
2017-05-19T00:26:58.907Z,0
2017-05-19T00:27:40.960Z,0
2017-05-19T00:28:21.392Z,0
2017-05-19T00:29:03.551Z,0
2017-05-19T00:29:44.036Z,0
2017-05-19T00:30:24.434Z,0
2017-05-19T00:31:04.905Z,0
2017-05-19T00:31:45.505Z,0
2017-05-19T00:32:25.774Z,0
2017-05-19T00:33:06.494Z,0
2017-05-19T00:33:46.732Z,0
2017-05-19T00:34:27.327Z,0
2017-05-19T00:35:07.868Z,0
2017-05-19T00:35:48.314Z,0
2017-05-19T00:36:28.806Z,0
2017-05-19T00:37:09.263Z,0
2017-05-19T00:37:49.809Z,0
2017-05-19T00:38:30.194Z,0
2017-05-19T00:39:10.636Z,0
2017-05-19T00:39:51.067Z,0
2017-05-19T00:40:31.555Z,0
2017-05-19T00:41:12.112Z,0
2017-05-19T00:41:52.580Z,0
2017-05-19T00:42:33.084Z,0
2017-05-19T00:43:13.517Z,0
2017-05-19T00:43:54.050Z,0
2017-05-19T00:44:34.466Z,0
2017-05-19T00:45:14.923Z,0
2017-05-19T00:45:55.355Z,0
2017-05-19T00:46:35.809Z,0
2017-05-19T00:47:16.228Z,0
2017-05-19T00:47:56.713Z,0
2017-05-19T00:48:37.152Z,0
2017-05-19T00:49:17.584Z,0
2017-05-19T00:49:58.049Z,0
2017-05-19T00:50:38.497Z,0
2017-05-19T00:51:19.127Z,0
2017-05-19T00:51:59.539Z,0
2017-05-19T00:52:40.015Z,0
2017-05-19T00:53:20.469Z,0
2017-05-19T00:54:00.977Z,0
2017-05-19T00:54:42.399Z,0
2017-05-19T00:55:23.965Z,0
2017-05-19T00:56:10.019Z,0
2017-05-19T00:58:39.933Z,0
2017-05-19T00:59:20.349Z,0
2017-05-19T01:00:00.815Z,0
2017-05-19T01:00:41.269Z,0
2017-05-19T01:01:22.607Z,0
2017-05-19T01:02:04.056Z,0
2017-05-19T01:02:44.529Z,0
2017-05-19T01:03:24.977Z,0
2017-05-19T01:04:06.069Z,0
2017-05-19T01:04:46.515Z,0
2017-05-19T01:05:26.955Z,0
2017-05-19T01:06:07.402Z,0
2017-05-19T01:08:27.845Z,0
2017-05-19T01:09:08.097Z,0
2017-05-19T01:09:48.523Z,0
2017-05-19T01:10:29.007Z,0
2017-05-19T01:11:09.456Z,0
2017-05-19T01:11:50.078Z,0
2017-05-19T01:12:30.572Z,0
2017-05-19T01:13:11.019Z,0
2017-05-19T01:13:51.425Z,0
2017-05-19T01:14:31.926Z,0
2017-05-19T01:15:12.393Z,0
2017-05-19T01:15:52.884Z,0
2017-05-19T01:16:33.386Z,0
2017-05-19T01:17:13.841Z,0
2017-05-19T01:17:54.336Z,0
2017-05-19T01:18:34.804Z,0
2017-05-19T01:19:15.164Z,0
2017-05-19T01:19:55.614Z,0
2017-05-19T01:20:36.094Z,0
2017-05-19T01:21:16.542Z,0
2017-05-19T01:21:57.019Z,0
2017-05-19T01:22:37.464Z,0
2017-05-19T01:23:17.930Z,0
2017-05-19T01:23:58.426Z,0
2017-05-19T01:24:38.857Z,0
2017-05-19T01:25:19.361Z,0
2017-05-19T01:25:59.815Z,0
2017-05-19T01:26:40.277Z,0
2017-05-19T01:27:20.732Z,0
2017-05-19T01:28:01.231Z,0
2017-05-19T01:28:41.693Z,0
2017-05-19T01:29:22.146Z,0
2017-05-19T01:30:02.632Z,0
2017-05-19T01:30:43.052Z,0
2017-05-19T01:31:23.586Z,0
2017-05-19T01:32:04.068Z,0
2017-05-19T01:32:44.550Z,0
2017-05-19T01:33:25.011Z,0
2017-05-19T01:34:05.498Z,0
2017-05-19T01:34:45.990Z,0
2017-05-19T01:35:26.463Z,0
2017-05-19T01:36:06.898Z,0
2017-05-19T01:36:47.305Z,0
2017-05-19T01:37:27.752Z,0
2017-05-19T01:38:08.216Z,0
2017-05-19T01:38:48.709Z,0
2017-05-19T01:39:29.191Z,0
2017-05-19T01:40:09.643Z,0
2017-05-19T01:40:50.055Z,0
2017-05-19T01:41:30.552Z,0
2017-05-19T01:42:11.047Z,0
2017-05-19T01:42:51.478Z,0
2017-05-19T01:43:31.881Z,0
2017-05-19T01:44:12.342Z,0
2017-05-19T01:44:52.807Z,0
2017-05-19T01:45:33.296Z,0
2017-05-19T01:46:13.962Z,0
2017-05-19T01:46:54.437Z,0
2017-05-19T01:47:34.879Z,0
2017-05-19T01:48:15.351Z,0
2017-05-19T01:48:55.779Z,0
2017-05-19T01:49:36.231Z,0
2017-05-19T01:50:16.701Z,0
2017-05-19T01:50:57.180Z,0
2017-05-19T01:51:37.638Z,0
2017-05-19T01:52:18.111Z,0
2017-05-19T01:52:58.566Z,0
2017-05-19T01:53:39.025Z,0
2017-05-19T01:54:19.509Z,0
2017-05-19T01:54:59.898Z,0
2017-05-19T01:55:40.363Z,0
2017-05-19T01:56:20.967Z,0
2017-05-19T01:57:01.421Z,0
2017-05-19T01:57:41.858Z,0
2017-05-19T01:58:22.326Z,0
2017-05-19T01:59:02.770Z,0
2017-05-19T01:59:43.218Z,0
2017-05-19T02:00:23.753Z,0
2017-05-19T02:01:04.195Z,0
2017-05-19T02:01:44.656Z,0
2017-05-19T02:02:25.114Z,0
2017-05-19T02:03:05.558Z,0
2017-05-19T02:03:46.039Z,0
2017-05-19T02:04:26.454Z,0
2017-05-19T02:05:06.925Z,0
2017-05-19T02:05:47.392Z,0
2017-05-19T02:06:27.833Z,0
2017-05-19T02:07:08.312Z,0
2017-05-19T02:07:48.717Z,0
2017-05-19T02:08:29.225Z,0
2017-05-19T02:09:09.660Z,0
2017-05-19T02:09:50.108Z,0
2017-05-19T02:10:30.499Z,0
2017-05-19T02:11:10.996Z,0
2017-05-19T02:11:51.493Z,0
2017-05-19T02:12:31.925Z,0
2017-05-19T02:13:12.374Z,0
2017-05-19T02:13:52.761Z,0
2017-05-19T02:14:33.265Z,0
2017-05-19T02:15:13.680Z,0
2017-05-19T02:15:54.178Z,0
2017-05-19T02:16:34.648Z,0
2017-05-19T02:17:15.075Z,0
2017-05-19T02:17:55.542Z,0
2017-05-19T02:18:36.011Z,0
2017-05-19T02:19:16.437Z,0
2017-05-19T02:19:56.907Z,0
2017-05-19T02:20:37.373Z,0
2017-05-19T02:21:17.963Z,0
2017-05-19T02:21:58.393Z,0
2017-05-19T02:22:38.878Z,0
2017-05-19T02:23:19.297Z,0
2017-05-19T02:23:59.855Z,0
2017-05-19T02:24:40.278Z,0
2017-05-19T02:25:20.753Z,0
2017-05-19T02:26:01.198Z,0
2017-05-19T02:26:41.623Z,0
2017-05-19T02:27:22.043Z,0
2017-05-19T02:28:02.476Z,0
2017-05-19T02:28:42.970Z,0
2017-05-19T02:29:23.377Z,0
2017-05-19T02:30:03.871Z,0
2017-05-19T02:30:44.253Z,0
2017-05-19T02:31:24.854Z,0
2017-05-19T02:32:05.247Z,0
2017-05-19T02:32:45.666Z,0
2017-05-19T02:33:26.115Z,0
2017-05-19T02:34:06.574Z,0
2017-05-19T02:34:47.042Z,0
2017-05-19T02:35:27.485Z,0
2017-05-19T02:36:07.950Z,0
2017-05-19T02:36:48.946Z,0
2017-05-19T02:37:29.397Z,0
2017-05-19T02:38:09.875Z,0
2017-05-19T02:38:50.256Z,0
2017-05-19T02:39:30.697Z,0
2017-05-19T02:40:11.204Z,0
2017-05-19T02:40:51.658Z,0
2017-05-19T02:41:32.183Z,0
2017-05-19T02:42:12.599Z,0
2017-05-19T02:42:53.054Z,0
2017-05-19T02:43:33.519Z,0
2017-05-19T02:44:14.000Z,0
2017-05-19T02:44:54.423Z,0
2017-05-19T02:45:34.908Z,0
2017-05-19T02:46:15.481Z,0
2017-05-19T02:46:55.905Z,0
2017-05-19T02:47:36.356Z,0
2017-05-19T02:48:16.794Z,0
2017-05-19T02:48:57.321Z,0
2017-05-19T02:49:37.815Z,0
2017-05-19T02:50:18.260Z,0
2017-05-19T02:50:58.657Z,0
2017-05-19T02:51:39.144Z,0
2017-05-19T02:52:19.645Z,0
2017-05-19T02:53:00.047Z,0
2017-05-19T02:53:40.526Z,0
2017-05-19T02:54:20.981Z,0
2017-05-19T02:55:01.404Z,0
2017-05-19T02:55:41.855Z,0
2017-05-19T02:56:22.290Z,0
2017-05-19T02:57:02.706Z,0
2017-05-19T02:57:43.175Z,0
2017-05-19T02:58:23.615Z,0
2017-05-19T02:59:04.158Z,0
2017-05-19T02:59:44.552Z,0
2017-05-19T03:00:24.979Z,0
2017-05-19T03:01:05.469Z,0
2017-05-19T03:01:45.927Z,0
2017-05-19T03:02:26.356Z,0
2017-05-19T03:03:06.759Z,0
2017-05-19T03:03:47.277Z,0
2017-05-19T03:04:27.753Z,0
2017-05-19T03:05:08.122Z,0
2017-05-19T03:05:48.599Z,0
2017-05-19T03:06:29.100Z,4
2017-05-19T03:07:09.589Z,4
2017-05-19T03:07:50.036Z,4
2017-05-19T03:08:30.523Z,0
2017-05-19T03:09:10.946Z,0
2017-05-19T03:09:51.392Z,4
2017-05-19T03:10:31.862Z,4
2017-05-19T03:11:12.333Z,4
2017-05-19T03:11:52.740Z,4
2017-05-19T03:12:33.285Z,4
2017-05-19T03:13:13.706Z,8
2017-05-19T03:13:54.149Z,4
2017-05-19T03:14:34.600Z,4
2017-05-19T03:15:15.133Z,4
2017-05-19T03:15:55.503Z,8
2017-05-19T03:16:35.969Z,8
2017-05-19T03:17:16.420Z,4
2017-05-19T03:17:56.964Z,8
2017-05-19T03:18:37.338Z,8
2017-05-19T03:19:17.821Z,8
2017-05-19T03:19:58.235Z,12
2017-05-19T03:20:38.731Z,8
2017-05-19T03:21:19.109Z,8
2017-05-19T03:21:59.692Z,12
2017-05-19T03:22:40.140Z,12
2017-05-19T03:23:20.614Z,12
2017-05-19T03:25:49.347Z,16
2017-05-19T03:26:29.787Z,16
2017-05-19T03:27:10.316Z,20
2017-05-19T03:27:50.796Z,20
2017-05-19T03:28:31.469Z,20
2017-05-19T03:29:11.911Z,20
2017-05-19T03:29:52.355Z,20
2017-05-19T03:30:32.807Z,20
2017-05-19T03:31:13.285Z,20
2017-05-19T03:31:53.732Z,20
2017-05-19T03:32:34.240Z,24
2017-05-19T03:33:14.658Z,20
2017-05-19T03:35:55.332Z,28
2017-05-19T03:36:43.411Z,32
2017-05-19T03:37:31.090Z,32
2017-05-19T03:38:10.609Z,36
2017-05-19T03:38:51.238Z,36
2017-05-19T03:39:31.607Z,36
2017-05-19T03:40:11.989Z,36
2017-05-19T03:40:52.595Z,36
2017-05-19T03:41:33.002Z,36
2017-05-19T03:42:13.500Z,40
2017-05-19T03:42:53.986Z,44
2017-05-19T03:43:34.314Z,44
2017-05-19T03:44:14.830Z,44
2017-05-19T03:44:55.839Z,44
2017-05-19T03:45:36.408Z,44
2017-05-19T03:46:16.979Z,40
2017-05-19T03:46:57.476Z,40
2017-05-19T03:47:37.983Z,36
2017-05-19T03:48:18.886Z,32
2017-05-19T03:48:59.309Z,32
2017-05-19T03:49:39.813Z,32
2017-05-19T03:50:20.314Z,36
2017-05-19T03:51:00.744Z,40
2017-05-19T03:51:41.328Z,48
2017-05-19T03:52:21.675Z,48
2017-05-19T03:53:02.289Z,52
2017-05-19T03:53:42.749Z,48
2017-05-19T03:54:23.378Z,48
2017-05-19T03:55:03.785Z,48
2017-05-19T03:55:44.374Z,44
2017-05-19T03:56:24.884Z,44
2017-05-19T03:57:05.609Z,44
2017-05-19T03:57:46.213Z,44
2017-05-19T03:58:26.572Z,44
2017-05-19T03:59:06.973Z,52
2017-05-19T03:59:47.688Z,56
2017-05-19T04:00:29.127Z,60
2017-05-19T04:01:09.598Z,60
2017-05-19T04:01:50.107Z,64
2017-05-19T04:02:30.686Z,64
2017-05-19T04:03:11.961Z,68
2017-05-19T04:03:52.365Z,76
2017-05-19T04:04:32.811Z,80
2017-05-19T04:05:13.370Z,84
2017-05-19T04:05:53.784Z,92
2017-05-19T04:06:34.406Z,96
2017-05-19T04:07:15.298Z,96
2017-05-19T04:07:55.742Z,96
2017-05-19T04:08:36.175Z,92
2017-05-19T04:09:18.320Z,88
2017-05-19T04:09:58.748Z,92
2017-05-19T04:10:39.621Z,88
2017-05-19T04:11:20.053Z,88
2017-05-19T04:12:00.569Z,96
2017-05-19T04:12:41.167Z,108
2017-05-19T04:13:21.712Z,116
2017-05-19T04:14:02.287Z,128
2017-05-19T04:14:42.677Z,136
2017-05-19T04:15:23.383Z,140
2017-05-19T04:16:03.803Z,152
2017-05-19T04:16:44.234Z,164
2017-05-19T04:17:24.881Z,184
2017-05-19T04:18:05.348Z,192
2017-05-19T04:18:45.857Z,200
2017-05-19T04:19:26.344Z,228
2017-05-19T04:20:06.789Z,248
2017-05-19T04:20:47.461Z,268
2017-05-19T04:21:27.917Z,292
2017-05-19T04:22:09.560Z,300
2017-05-19T04:22:50.017Z,352
2017-05-19T04:23:30.635Z,380
2017-05-19T04:24:11.243Z,396
2017-05-19T04:24:51.806Z,416
2017-05-19T04:25:32.241Z,468
2017-05-19T04:26:13.541Z,484
2017-05-19T04:26:54.023Z,520
2017-05-19T04:27:34.577Z,560
2017-05-19T04:28:15.999Z,592
2017-05-19T04:28:56.440Z,616
2017-05-19T04:29:37.089Z,652
2017-05-19T04:30:17.489Z,688
2017-05-19T04:30:58.160Z,672
2017-05-19T04:31:38.528Z,656
2017-05-19T04:32:19.090Z,684
2017-05-19T04:32:59.713Z,684
2017-05-19T04:33:40.069Z,704
2017-05-19T04:34:20.563Z,716
2017-05-19T04:35:01.170Z,696
2017-05-19T04:35:41.607Z,724
2017-05-19T04:36:22.410Z,712
2017-05-19T04:37:02.974Z,684
2017-05-19T04:37:43.629Z,688
2017-05-19T04:38:24.954Z,700
2017-05-19T04:39:05.421Z,736
2017-05-19T04:39:46.835Z,728
2017-05-19T04:40:27.355Z,712
2017-05-19T04:41:07.945Z,704
2017-05-19T04:41:48.543Z,668
2017-05-19T04:42:28.938Z,660
2017-05-19T04:43:10.125Z,644
2017-05-19T04:43:50.642Z,664
2017-05-19T04:44:31.287Z,680
2017-05-19T04:45:11.795Z,740
2017-05-19T04:45:52.308Z,744
2017-05-19T04:46:32.817Z,760
2017-05-19T04:47:13.411Z,784
2017-05-19T04:47:53.847Z,780
2017-05-19T04:50:28.485Z,792
2017-05-19T04:51:17.486Z,768
2017-05-19T04:52:06.070Z,812
2017-05-19T04:52:54.341Z,940
2017-05-19T04:53:43.471Z,1052
2017-05-19T04:54:32.246Z,1128
2017-05-19T04:55:21.110Z,1180
2017-05-19T04:56:09.638Z,1196
2017-05-19T04:56:57.878Z,1288
2017-05-19T04:57:40.458Z,1356
2017-05-19T04:58:20.860Z,1324
2017-05-19T04:59:01.300Z,1292
2017-05-19T04:59:41.743Z,1196
2017-05-19T05:00:22.171Z,1164
2017-05-19T05:01:02.619Z,1184
2017-05-19T05:01:43.114Z,1172
2017-05-19T05:02:23.514Z,1052
2017-05-19T05:03:03.992Z,988
2017-05-19T05:03:44.447Z,956
2017-05-19T05:04:24.912Z,920
2017-05-19T05:05:05.353Z,872
2017-05-19T05:05:45.828Z,828
2017-05-19T05:06:26.239Z,788
2017-05-19T05:07:06.714Z,808
2017-05-19T05:07:47.133Z,868
2017-05-19T05:08:27.578Z,920
2017-05-19T05:09:08.047Z,1032
2017-05-19T05:09:48.528Z,1180
2017-05-19T05:10:29.021Z,1384
2017-05-19T05:11:09.474Z,1576
2017-05-19T05:11:49.945Z,1756
2017-05-19T05:12:30.391Z,1968
2017-05-19T05:13:10.846Z,2212
2017-05-19T05:13:51.274Z,2616
2017-05-19T05:14:31.727Z,3084
2017-05-19T05:15:12.232Z,3360
2017-05-19T05:15:52.725Z,3328
2017-05-19T05:16:33.425Z,3100
2017-05-19T05:17:13.826Z,3156
2017-05-19T05:17:54.343Z,3292
2017-05-19T05:18:34.764Z,3128
2017-05-19T05:19:15.226Z,2544
2017-05-19T05:19:55.681Z,2172
2017-05-19T05:20:36.141Z,1812
2017-05-19T05:21:16.766Z,1424
2017-05-19T05:21:57.160Z,1120
2017-05-19T05:22:37.621Z,1144
2017-05-19T05:23:18.124Z,1164
2017-05-19T05:23:58.605Z,1436
2017-05-19T05:24:39.074Z,1720
2017-05-19T05:25:19.500Z,1924
2017-05-19T05:25:59.998Z,2324
2017-05-19T05:26:40.479Z,2692
2017-05-19T05:27:20.920Z,2864
2017-05-19T05:28:01.365Z,2972
2017-05-19T05:28:41.853Z,3044
2017-05-19T05:29:22.306Z,3036
2017-05-19T05:30:02.774Z,2940
2017-05-19T05:30:43.233Z,2776
2017-05-19T05:31:23.797Z,2488
2017-05-19T05:32:04.224Z,2172
2017-05-19T05:32:44.680Z,1860
2017-05-19T05:33:25.723Z,1636
2017-05-19T05:34:06.229Z,1504
2017-05-19T05:36:19.228Z,1276
2017-05-19T05:37:00.425Z,1236
2017-05-19T05:37:40.879Z,1232
2017-05-19T05:38:21.362Z,1232
2017-05-19T05:39:01.814Z,1272
2017-05-19T05:41:35.060Z,1612
2017-05-19T05:42:15.539Z,1624
2017-05-19T05:42:56.017Z,1596
2017-05-19T05:43:36.430Z,1532
2017-05-19T05:44:16.928Z,1532
2017-05-19T05:44:57.385Z,1516
2017-05-19T05:45:37.841Z,1408
2017-05-19T05:46:18.329Z,1356
2017-05-19T05:48:36.148Z,1388
2017-05-19T05:49:16.625Z,1516
2017-05-19T05:49:57.102Z,1684
2017-05-19T05:50:37.551Z,1780
2017-05-19T05:51:18.046Z,2060
2017-05-19T05:51:58.505Z,2100
2017-05-19T05:52:38.982Z,1904
2017-05-19T05:53:19.439Z,1772
2017-05-19T05:53:59.882Z,1672
2017-05-19T05:54:40.340Z,1472
2017-05-19T05:55:20.822Z,1284
2017-05-19T05:56:01.286Z,1244
2017-05-19T05:56:41.735Z,1236
2017-05-19T05:57:22.193Z,1132
2017-05-19T05:59:34.980Z,860
2017-05-19T06:00:15.419Z,764
2017-05-19T06:00:55.957Z,720
2017-05-19T06:01:36.605Z,696
2017-05-19T06:02:17.182Z,636
2017-05-19T06:02:57.767Z,624
2017-05-19T06:03:38.292Z,572
2017-05-19T06:04:18.805Z,516
2017-05-19T06:04:59.283Z,508
2017-05-19T06:05:39.764Z,504
2017-05-19T06:06:20.246Z,484
2017-05-19T06:07:00.734Z,416
2017-05-19T06:07:41.189Z,336
2017-05-19T06:08:21.684Z,288
2017-05-19T06:09:02.128Z,264
2017-05-19T06:09:42.583Z,272
2017-05-19T06:10:23.047Z,268
2017-05-19T06:11:03.498Z,296
2017-05-19T06:11:43.981Z,396
2017-05-19T06:12:24.444Z,452
2017-05-19T06:13:04.909Z,480
2017-05-19T06:13:45.397Z,472
2017-05-19T06:14:25.855Z,444
2017-05-19T06:15:06.314Z,572
2017-05-19T06:15:46.767Z,608
2017-05-19T06:16:27.234Z,636
2017-05-19T06:17:07.718Z,612
2017-05-19T06:17:48.190Z,824
2017-05-19T06:18:28.652Z,1048
2017-05-19T06:19:09.106Z,960
2017-05-19T06:19:49.568Z,864
2017-05-19T06:20:30.021Z,904
2017-05-19T06:21:10.502Z,1012
2017-05-19T06:21:50.997Z,1308
2017-05-19T06:22:31.482Z,1388
2017-05-19T06:23:11.928Z,1412
2017-05-19T06:25:44.979Z,1636
2017-05-19T06:26:25.460Z,1836
2017-05-19T06:27:06.523Z,1896
2017-05-19T06:27:46.917Z,1880
2017-05-19T06:28:27.371Z,1844
2017-05-19T06:30:40.139Z,1408
2017-05-19T06:31:20.627Z,1400
2017-05-19T06:32:01.104Z,1488
2017-05-19T06:32:41.597Z,1416
2017-05-19T06:33:22.112Z,1108
2017-05-19T06:34:02.610Z,944
2017-05-19T06:34:43.078Z,856
2017-05-19T06:35:23.560Z,820
2017-05-19T06:36:04.047Z,848
2017-05-19T06:36:44.506Z,940
2017-05-19T06:37:25.019Z,924
2017-05-19T06:38:05.546Z,816
2017-05-19T06:38:46.027Z,832
2017-05-19T06:39:26.545Z,824
2017-05-19T06:40:06.991Z,824
2017-05-19T06:40:47.444Z,844
2017-05-19T06:41:27.898Z,1008
2017-05-19T06:42:08.339Z,1204
2017-05-19T06:42:48.772Z,1080
2017-05-19T06:43:29.245Z,872
2017-05-19T06:44:09.723Z,804
2017-05-19T06:44:50.190Z,840
2017-05-19T06:47:07.994Z,1108
2017-05-19T06:47:48.447Z,1304
2017-05-19T06:48:28.906Z,1652
2017-05-19T06:49:09.347Z,1980
2017-05-19T06:49:49.849Z,2304
2017-05-19T06:50:30.770Z,2736
2017-05-19T06:51:11.765Z,3204
2017-05-19T06:51:52.226Z,3192
2017-05-19T06:52:32.672Z,3080
2017-05-19T06:53:15.052Z,3740
2017-05-19T06:53:55.532Z,4072
2017-05-19T06:54:35.982Z,4108
2017-05-19T06:55:16.435Z,3244
2017-05-19T06:55:56.867Z,2636
2017-05-19T06:56:37.323Z,2272
2017-05-19T06:57:17.781Z,2172
2017-05-19T06:57:58.227Z,2140
2017-05-19T06:58:38.688Z,2316
2017-05-19T06:59:19.149Z,2320
2017-05-19T06:59:59.590Z,2476
2017-05-19T07:02:17.533Z,3008
2017-05-19T07:04:15.176Z,3484
2017-05-19T07:04:55.626Z,3440
2017-05-19T07:05:36.119Z,3524
2017-05-19T07:06:16.594Z,3448
2017-05-19T07:06:57.056Z,3360
2017-05-19T07:09:30.048Z,3548
2017-05-19T07:10:10.570Z,3224
2017-05-19T07:10:51.063Z,2632
2017-05-19T07:13:03.821Z,1828
2017-05-19T07:13:44.373Z,1732
2017-05-19T07:14:24.783Z,1576
2017-05-19T07:15:05.232Z,1624
2017-05-19T07:15:45.697Z,1504
2017-05-19T07:18:13.883Z,1608
2017-05-19T07:18:54.373Z,1528
2017-05-19T07:19:34.848Z,1380
2017-05-19T07:20:15.340Z,1184
2017-05-19T07:20:55.895Z,992
2017-05-19T07:21:36.384Z,808
2017-05-19T07:22:16.880Z,736
2017-05-19T07:22:57.370Z,644
2017-05-19T07:23:37.856Z,704
2017-05-19T07:24:18.348Z,728
2017-05-19T07:24:58.819Z,724
2017-05-19T07:25:39.341Z,712
2017-05-19T07:26:19.836Z,748
2017-05-19T07:27:00.371Z,856
2017-05-19T07:27:40.829Z,960
2017-05-19T07:28:21.334Z,1104
2017-05-19T07:29:01.850Z,1264
2017-05-19T07:29:42.349Z,1332
2017-05-19T07:30:22.897Z,1516
2017-05-19T07:31:03.441Z,1596
2017-05-19T07:31:43.960Z,1696
2017-05-19T07:32:24.443Z,1668
2017-05-19T07:33:05.647Z,1744
2017-05-19T07:33:46.194Z,1752
2017-05-19T07:34:26.711Z,1724
2017-05-19T07:35:07.233Z,1692
2017-05-19T07:37:41.252Z,1636
2017-05-19T07:38:21.830Z,1636
2017-05-19T07:39:02.336Z,1728
2017-05-19T07:39:42.846Z,1832
2017-05-19T07:40:23.389Z,1812
2017-05-19T07:41:03.883Z,1940
2017-05-19T07:41:44.351Z,1976
2017-05-19T07:42:24.910Z,2000
2017-05-19T07:43:05.415Z,2104
2017-05-19T07:43:45.940Z,1988
2017-05-19T07:44:26.437Z,1984
2017-05-19T07:46:24.546Z,1712
2017-05-19T07:47:04.993Z,1448
2017-05-19T07:47:45.488Z,1256
2017-05-19T07:48:26.032Z,1200
2017-05-19T07:49:06.509Z,1128
2017-05-19T07:49:47.003Z,1112
2017-05-19T07:50:27.587Z,1256
2017-05-19T07:51:08.066Z,1200
2017-05-19T07:51:48.549Z,1064
2017-05-19T07:52:29.059Z,1048
2017-05-19T07:53:09.651Z,1036
2017-05-19T07:53:50.195Z,1016
2017-05-19T07:54:30.863Z,992
2017-05-19T07:55:11.312Z,924
2017-05-19T07:55:51.764Z,840
2017-05-19T07:56:32.235Z,816
2017-05-19T07:57:12.912Z,836
2017-05-19T07:57:53.395Z,788
2017-05-19T08:00:21.348Z,836
2017-05-19T08:01:01.865Z,840
2017-05-19T08:01:42.364Z,944
2017-05-19T08:03:40.179Z,1092
2017-05-19T08:04:20.689Z,1116
2017-05-19T08:05:01.190Z,1128
2017-05-19T08:05:41.695Z,1252
2017-05-19T08:06:22.197Z,1436
2017-05-19T08:07:02.698Z,1380
2017-05-19T08:07:43.138Z,1432
2017-05-19T08:09:55.853Z,1596
2017-05-19T08:10:36.304Z,1504
2017-05-19T08:11:16.825Z,1488
2017-05-19T08:11:57.314Z,1548
2017-05-19T08:12:37.794Z,1560
2017-05-19T08:13:18.334Z,1508
2017-05-19T08:13:58.797Z,1576
2017-05-19T08:14:39.242Z,1616
2017-05-19T08:15:19.770Z,1704
2017-05-19T08:16:00.197Z,1972
2017-05-19T08:16:40.651Z,2096
2017-05-19T08:17:21.134Z,2256
2017-05-19T08:18:01.685Z,2252
2017-05-19T08:18:42.198Z,2292
2017-05-19T08:19:22.659Z,2644
2017-05-19T08:20:03.118Z,2940
2017-05-19T08:20:43.604Z,3000
2017-05-19T08:21:24.100Z,3104
2017-05-19T08:23:57.123Z,3200
2017-05-19T08:24:37.630Z,3188
2017-05-19T08:25:18.093Z,3280
2017-05-19T08:25:58.574Z,3284
2017-05-19T08:26:39.103Z,3312
2017-05-19T08:27:19.577Z,3320
2017-05-19T08:28:00.041Z,3464
2017-05-19T08:28:40.494Z,3648
2017-05-19T08:30:38.206Z,4056
2017-05-19T08:31:18.725Z,4260
2017-05-19T08:31:59.223Z,4096
2017-05-19T08:32:39.716Z,3960
2017-05-19T08:33:20.187Z,4056
2017-05-19T08:34:01.621Z,3828
2017-05-19T08:34:42.311Z,4132
2017-05-19T08:35:22.880Z,4432
2017-05-19T08:36:03.422Z,4396
2017-05-19T08:36:43.930Z,4676
2017-05-19T08:37:24.400Z,5312
2017-05-19T08:38:05.047Z,5644
2017-05-19T08:40:02.746Z,5588
2017-05-19T08:40:43.295Z,5732
2017-05-19T08:41:23.754Z,5724
2017-05-19T08:42:04.305Z,5944
2017-05-19T08:42:44.886Z,6120
2017-05-19T08:43:25.420Z,6028
2017-05-19T08:44:05.875Z,5884
2017-05-19T08:44:46.346Z,5608
2017-05-19T08:46:43.976Z,4652
2017-05-19T08:47:24.459Z,4244
2017-05-19T08:48:04.959Z,3912
2017-05-19T08:48:45.418Z,3432
2017-05-19T08:49:25.916Z,3020
2017-05-19T08:50:06.387Z,3396
2017-05-19T08:52:19.172Z,3244
2017-05-19T08:52:59.666Z,3684
2017-05-19T08:53:40.191Z,3392
2017-05-19T08:54:20.704Z,3120
2017-05-19T08:55:01.219Z,3024
2017-05-19T08:55:41.656Z,2888
2017-05-19T08:57:54.357Z,2524
2017-05-19T08:58:34.857Z,2372
2017-05-19T08:59:15.364Z,2684
2017-05-19T08:59:55.814Z,2908
2017-05-19T09:00:36.274Z,3152
2017-05-19T09:03:09.356Z,2984
2017-05-19T09:03:49.811Z,3528
2017-05-19T09:04:30.249Z,3820
2017-05-19T09:06:42.988Z,3780
2017-05-19T09:07:23.465Z,3660
2017-05-19T09:08:03.890Z,3764
2017-05-19T09:08:44.387Z,3568
2017-05-19T09:09:24.857Z,3408
2017-05-19T09:10:05.363Z,3420
2017-05-19T09:10:45.839Z,3256
2017-05-19T09:11:26.361Z,3012
2017-05-19T09:13:59.327Z,2948
2017-05-19T09:14:39.807Z,3080
2017-05-19T09:15:20.235Z,3020
2017-05-19T09:16:00.783Z,2892
2017-05-19T09:16:41.188Z,2984
2017-05-19T09:17:21.661Z,3124
2017-05-19T09:18:02.131Z,2992
2017-05-19T09:18:42.753Z,3112
2017-05-19T09:19:23.242Z,3100
2017-05-19T09:20:03.656Z,3156
2017-05-19T09:22:21.874Z,3832
2017-05-19T09:23:02.337Z,3932
2017-05-19T09:23:42.788Z,4652
2017-05-19T09:24:23.283Z,5344
2017-05-19T09:25:03.711Z,5476
2017-05-19T09:25:44.165Z,5084
2017-05-19T09:26:24.660Z,5308
2017-05-19T09:27:05.247Z,4520
2017-05-19T09:27:45.737Z,4460
2017-05-19T09:28:26.262Z,4176
2017-05-19T09:29:06.731Z,4388
2017-05-19T09:31:04.387Z,3680
2017-05-19T09:31:44.851Z,3460
2017-05-19T09:32:25.340Z,3548
2017-05-19T09:33:05.809Z,3664
2017-05-19T09:33:46.315Z,3840
2017-05-19T09:34:26.783Z,3696
2017-05-19T09:35:07.276Z,3864
2017-05-19T09:35:47.746Z,3952
2017-05-19T09:37:45.412Z,5508
2017-05-19T09:38:25.876Z,5444
2017-05-19T09:39:06.435Z,4856
2017-05-19T09:39:46.915Z,4740
2017-05-19T09:40:27.347Z,4280
2017-05-19T09:43:02.272Z,4240
2017-05-19T09:43:42.374Z,3808
2017-05-19T09:44:22.814Z,2840
2017-05-19T09:46:20.405Z,3256
2017-05-19T09:47:00.960Z,3748
2017-05-19T09:47:41.455Z,4224
2017-05-19T09:50:15.023Z,3536
2017-05-19T09:50:55.498Z,3172
2017-05-19T09:51:36.010Z,2660
2017-05-19T09:52:16.503Z,1996
2017-05-19T09:52:57.055Z,2240
2017-05-19T09:53:37.494Z,2376
2017-05-19T09:55:35.123Z,3812
2017-05-19T09:56:15.618Z,4292
2017-05-19T09:56:56.100Z,4344
2017-05-19T09:57:36.623Z,4020
2017-05-19T09:59:34.313Z,2932
2017-05-19T10:00:14.806Z,2472
2017-05-19T10:00:55.284Z,1888
2017-05-19T10:01:35.784Z,1580
2017-05-19T10:02:16.266Z,1380
2017-05-19T10:02:56.786Z,1564
2017-05-19T10:03:37.258Z,1736
2017-05-19T10:04:17.725Z,2112
2017-05-19T10:04:58.237Z,2640
2017-05-19T10:05:38.891Z,3308
2017-05-19T10:06:19.441Z,3096
2017-05-19T10:06:59.964Z,3008
2017-05-19T10:07:40.374Z,2700
2017-05-19T10:08:20.832Z,2564
2017-05-19T10:09:01.257Z,2572
2017-05-19T10:09:41.747Z,2152
2017-05-19T10:10:22.191Z,2196
2017-05-19T10:11:02.682Z,2604
2017-05-19T10:11:43.162Z,2664
2017-05-19T10:12:23.622Z,3132
2017-05-19T10:13:04.095Z,4192
2017-05-19T10:13:44.548Z,4724
2017-05-19T10:14:25.099Z,4368
2017-05-19T10:15:05.511Z,5016
2017-05-19T10:15:46.025Z,5520
2017-05-19T10:16:26.510Z,6080
2017-05-19T10:17:06.969Z,5768
2017-05-19T10:17:47.426Z,5736
2017-05-19T10:19:45.047Z,3488
2017-05-19T10:21:42.700Z,2288
2017-05-19T10:22:23.114Z,2292
2017-05-19T10:23:03.595Z,2132
2017-05-19T10:23:44.035Z,1980
2017-05-19T10:24:24.490Z,2008
2017-05-19T10:25:04.940Z,2620
2017-05-19T10:25:45.402Z,3668
2017-05-19T10:26:25.892Z,5176
2017-05-19T10:27:06.370Z,6228
2017-05-19T10:27:46.887Z,7576
2017-05-19T10:28:27.335Z,7988
2017-05-19T10:29:07.821Z,8716
2017-05-19T10:29:48.295Z,8468
2017-05-19T10:30:28.772Z,8256
2017-05-19T10:31:09.205Z,7940
2017-05-19T10:31:49.726Z,7632